Lebanon, TN

11:01 PM CST on January 18, 2017 (GMT -0600)
@WilsonSevereWX | | Change Station

Elev 570 ft 36.22 °N, 86.26 °W | Updated 2 minutes ago

Partly Cloudy
Partly Cloudy
41.3 °F
Feels Like 41 °F
N
-
Wind Variable Wind from North

Today
High -- | Low -- °F
--% Chance of Precip.
Yesterday
High -- | Low -- °F
Precip. -- in
Pressure 30.15 in
Visibility 10.0 miles
Clouds Few 9500 ft
Windchill 41 °F
Dew Point 41 °F
Humidity 99%
Rainfall Not available.
Snow Depth Not available.
6:54 AM 4:57 PM
Waning Gibbous, 57% visible
METAR KMQY 190456Z AUTO 00000KT 10SM FEW095 07/06 A3011 RMK AO2 SLP208 T00670061
Pressure 30.15 in
Visibility 10.0 miles
Clouds Few 9500 ft
Windchill 41 °F
Dew Point 41 °F
Humidity 99%
Rainfall Not available.
Snow Depth Not available.
6:54 AM 4:57 PM
Waning Gibbous, 57% visible
METAR KMQY 190456Z AUTO 00000KT 10SM FEW095 07/06 A3011 RMK AO2 SLP208 T00670061

Get Your Daily Forecast Email!

Thanks for signing up!

Be on the lookout for a verification email in your inbox.

You'll start receiving the daily forecast at 8 AM.

×

10-Day Weather Forecast

Almanac

Astronomy

Jan. 18, 2017 Rise Set
Actual Time
Civil Twilight
Nautical Twilight
Astronomical Twilight
Moon
Length of Visible Light
Length of Day
Tomorrow will be .
, % of the Moon is Illuminated

Today's Extremes

State Highs State Lows

Community

WunderPhotos

Upload Photos

1,962,540 photos uploaded!

WunderBlog® & News

Nearby

Air Quality

  Air Quality AQ Index Pollutant
Not available.

Snow Depth

Station Depth Elevation

Earthquake Activity

City Distance Mag. Time & Date
Minimum magnitude displayed is 2.5.

Coastal Water Temperatures

Place Temperature

Stations

Nearby Weather Stations

Station Location Temp. Windchill Dew Point Humidity Wind Precip. Elev Updated Type
                   

Watches & Warnings

There are currently no watches in effect.